地図

経路データ

SID SEASON NUMBER BASIN SUBBASIN NAME ISO_TIME NATURE LAT LON WMO_WIND WMO_PRES WMO_AGENCY TRACK_TYPE DIST2LAND LANDFALL IFLAG USA_AGENCY USA_ATCF_ID USA_LAT USA_LON USA_RECORD USA_STATUS USA_WIND USA_PRES USA_SSHS USA_R34_NE USA_R34_SE USA_R34_SW USA_R34_NW USA_R50_NE USA_R50_SE USA_R50_SW USA_R50_NW USA_R64_NE USA_R64_SE USA_R64_SW USA_R64_NW USA_POCI USA_ROCI USA_RMW USA_EYE TOKYO_LAT TOKYO_LON TOKYO_GRADE TOKYO_WIND TOKYO_PRES TOKYO_R50_DIR TOKYO_R50_LONG TOKYO_R50_SHORT TOKYO_R30_DIR TOKYO_R30_LONG TOKYO_R30_SHORT TOKYO_LAND CMA_LAT CMA_LON CMA_CAT CMA_WIND CMA_PRES HKO_LAT HKO_LON HKO_CAT HKO_WIND HKO_PRES NEWDELHI_LAT NEWDELHI_LON NEWDELHI_GRADE NEWDELHI_WIND NEWDELHI_PRES NEWDELHI_CI NEWDELHI_DP NEWDELHI_POCI REUNION_LAT REUNION_LON REUNION_TYPE REUNION_WIND REUNION_PRES REUNION_TNUM REUNION_CI REUNION_RMW REUNION_R34_NE REUNION_R34_SE REUNION_R34_SW REUNION_R34_NW REUNION_R50_NE REUNION_R50_SE REUNION_R50_SW REUNION_R50_NW REUNION_R64_NE REUNION_R64_SE REUNION_R64_SW REUNION_R64_NW BOM_LAT BOM_LON BOM_TYPE BOM_WIND BOM_PRES BOM_TNUM BOM_CI BOM_RMW BOM_R34_NE BOM_R34_SE BOM_R34_SW BOM_R34_NW BOM_R50_NE BOM_R50_SE BOM_R50_SW BOM_R50_NW BOM_R64_NE BOM_R64_SE BOM_R64_SW BOM_R64_NW BOM_ROCI BOM_POCI BOM_EYE BOM_POS_METHOD BOM_PRES_METHOD NADI_LAT NADI_LON NADI_CAT NADI_WIND NADI_PRES WELLINGTON_LAT WELLINGTON_LON WELLINGTON_WIND WELLINGTON_PRES DS824_LAT DS824_LON DS824_STAGE DS824_WIND DS824_PRES TD9636_LAT TD9636_LON TD9636_STAGE TD9636_WIND TD9636_PRES TD9635_LAT TD9635_LON TD9635_WIND TD9635_PRES TD9635_ROCI NEUMANN_LAT NEUMANN_LON NEUMANN_CLASS NEUMANN_WIND NEUMANN_PRES MLC_LAT MLC_LON MLC_CLASS MLC_WIND MLC_PRES USA_GUST BOM_GUST BOM_GUST_PER REUNION_GUST REUNION_GUST_PER USA_SEAHGT USA_SEARAD_NE USA_SEARAD_SE USA_SEARAD_SW USA_SEARAD_NW STORM_SPEED STORM_DIR
1861070S12100 1861 11 SI WA NOT_NAMED 1861-03-11 06:00:00 NR -11.5000 99.6000 spur-other 809 809 __________O___ -1 -11.5000 99.6000 7 13 253
1861070S12100 1861 11 SI WA NOT_NAMED 1861-03-11 09:00:00 NR -11.6994 98.9489 spur-other 883 883 __________P___ -1 -11.6994 98.9489 7 13 253
1861070S12100 1861 11 SI WA NOT_NAMED 1861-03-11 12:00:00 NR -11.8985 98.2978 spur-other 948 948 __________P___ -1 -11.8985 98.2978 7 13 253
1861070S12100 1861 11 SI WA NOT_NAMED 1861-03-11 15:00:00 NR -12.0983 97.6479 spur-other 1023 1023 __________P___ -1 -12.0983 97.6479 7 13 252
1861070S12100 1861 11 SI WA NOT_NAMED 1861-03-11 18:00:00 NR -12.3000 97.0000 spur-other 1088 1088 __________O___ -1 -12.3000 97.0000 7 13 252
1861070S12100 1861 11 SI WA NOT_NAMED 1861-03-11 21:00:00 NR -12.5024 96.3590 spur-other 1146 1146 __________P___ -1 -12.5024 96.3590 7 13 252
1861070S12100 1861 11 SI WA NOT_NAMED 1861-03-12 00:00:00 NR -12.6951 95.7453 spur-other 1212 1212 __________P___ -1 -12.6951 95.7453 7 12 252
1861070S12100 1861 11 SI WA NOT_NAMED 1861-03-12 03:00:00 NR -12.8651 95.1840 spur-other 1265 1265 __________P___ -1 -12.8651 95.1840 7 11 253
1861070S12100 1861 11 SI WA NOT_NAMED 1861-03-12 06:00:00 NR -13.0000 94.7000 spur-other 1309 1309 __________O___ -1 -13.0000 94.7000 7 9 255
1861070S12100 1861 11 SI WA NOT_NAMED 1861-03-12 09:00:00 NR -13.0894 94.3043 spur-other 1346 1346 __________P___ -1 -13.0894 94.3043 7 7 258
1861070S12100 1861 11 SI WA NOT_NAMED 1861-03-12 12:00:00 NR -13.1443 93.9871 spur-other 1368 1368 __________P___ -1 -13.1443 93.9871 7 6 261
1861070S12100 1861 11 SI WA NOT_NAMED 1861-03-12 15:00:00 NR -13.1771 93.7263 spur-other 1398 1398 __________P___ -1 -13.1771 93.7263 7 5 263
1861070S12100 1861 11 SI WA NOT_NAMED 1861-03-12 18:00:00 NR -13.2000 93.5000 spur-other 1413 1413 __________O___ -1 -13.2000 93.5000 7 4 263
1861070S12100 1861 11 SI WA NOT_NAMED 1861-03-12 21:00:00 NR -13.2319 93.2874 spur-other 1428 1428 __________P___ -1 -13.2319 93.2874 7 4 262
1861070S12100 1861 11 SI WA NOT_NAMED 1861-03-13 00:00:00 NR -13.2571 93.0999 spur-other 1447 1447 __________P___ -1 -13.2571 93.0999 7 4 263
1861070S12100 1861 11 SI WA NOT_NAMED 1861-03-13 03:00:00 NR -13.2788 92.9124 spur-other 1457 1457 __________P___ -1 -13.2788 92.9124 7 4 264
1861070S12100 1861 11 SI WA NOT_NAMED 1861-03-13 06:00:00 NR -13.3000 92.7000 spur-other 1468 1468 __________O___ -1 -13.3000 92.7000 7 5 266
1861070S12100 1861 11 SI WA NOT_NAMED 1861-03-13 09:00:00 NR -13.3171 92.4003 spur-other 1483 1483 __________P___ -1 -13.3171 92.4003 7 6 267
1861070S12100 1861 11 SI WA NOT_NAMED 1861-03-13 12:00:00 NR -13.3353 92.0775 spur-other 1499 1499 __________P___ -1 -13.3353 92.0775 7 6 266
1861070S12100 1861 11 SI WA NOT_NAMED 1861-03-13 15:00:00 NR -13.3609 91.7659 spur-other 1526 1526 __________P___ -1 -13.3609 91.7659 7 6 263
1861070S12100 1861 11 SI WA NOT_NAMED 1861-03-13 18:00:00 NR -13.4000 91.5000 spur-other 1543 1543 __________O___ -1 -13.4000 91.5000 7 5 258
1861070S12100 1861 11 SI WA NOT_NAMED 1861-03-13 21:00:00 NR -13.4573 91.3050 spur-other 1564 1564 __________P___ -1 -13.4573 91.3050 7 3 248
1861070S12100 1861 11 SI WA NOT_NAMED 1861-03-14 00:00:00 NR -13.5298 91.1701 spur-other 1570 1570 __________P___ -1 -13.5298 91.1701 7 3 235
1861070S12100 1861 11 SI WA NOT_NAMED 1861-03-14 03:00:00 NR -13.6123 91.0750 spur-other 1585 1585 __________P___ -1 -13.6123 91.0750 7 2 224
1861070S12100 1861 11 SI WA NOT_NAMED 1861-03-14 06:00:00 NR -13.7000 91.0000 spur-other 1601 __________O___ -1 -13.7000 91.0000 7 2 218

IBTrACS Databaseについて

本データベースは、米国NOAAが公開する1842年以降の世界の熱帯低気圧のベストトラックデータアーカイブInternational Best Track Archive for Climate Stewardship (IBTrACS)を、ウェブで閲覧しやすい形式に変換したものです。

最終更新日:2021-11-26